sensor_id;sensor_type;location;lat;lon;timestamp;temperature;humidity
316;DHT22;14128;48.686;9.738;2023-04-03T00:01:55;3.00;1.40
316;DHT22;14128;48.686;9.738;2023-04-03T00:04:21;3.00;1.40
316;DHT22;14128;48.686;9.738;2023-04-03T00:06:48;2.90;1.40
316;DHT22;14128;48.686;9.738;2023-04-03T00:09:16;2.90;1.40
316;DHT22;14128;48.686;9.738;2023-04-03T00:11:43;2.90;1.40
316;DHT22;14128;48.686;9.738;2023-04-03T00:14:10;2.90;1.40
316;DHT22;14128;48.686;9.738;2023-04-03T00:16:37;2.90;1.40
316;DHT22;14128;48.686;9.738;2023-04-03T00:19:03;2.90;1.40
316;DHT22;14128;48.686;9.738;2023-04-03T00:21:30;2.80;1.40
316;DHT22;14128;48.686;9.738;2023-04-03T00:23:57;2.80;1.40
316;DHT22;14128;48.686;9.738;2023-04-03T00:26:25;2.70;1.40
316;DHT22;14128;48.686;9.738;2023-04-03T00:28:52;2.80;1.40
316;DHT22;14128;48.686;9.738;2023-04-03T00:31:19;2.80;1.40
316;DHT22;14128;48.686;9.738;2023-04-03T00:33:45;2.80;1.40
316;DHT22;14128;48.686;9.738;2023-04-03T00:36:13;2.80;1.40
316;DHT22;14128;48.686;9.738;2023-04-03T00:38:40;2.80;1.40
316;DHT22;14128;48.686;9.738;2023-04-03T00:41:07;2.80;1.40
316;DHT22;14128;48.686;9.738;2023-04-03T00:43:36;2.80;1.40
316;DHT22;14128;48.686;9.738;2023-04-03T00:46:03;2.80;1.40
316;DHT22;14128;48.686;9.738;2023-04-03T00:48:32;2.80;1.40
316;DHT22;14128;48.686;9.738;2023-04-03T00:51:00;2.80;1.40
316;DHT22;14128;48.686;9.738;2023-04-03T00:53:30;2.70;1.40
316;DHT22;14128;48.686;9.738;2023-04-03T00:55:58;2.70;1.40
316;DHT22;14128;48.686;9.738;2023-04-03T00:58:31;2.70;1.40
316;DHT22;14128;48.686;9.738;2023-04-03T01:01:05;2.80;1.40
316;DHT22;14128;48.686;9.738;2023-04-03T01:03:33;2.80;1.40
316;DHT22;14128;48.686;9.738;2023-04-03T01:06:00;2.70;1.40
316;DHT22;14128;48.686;9.738;2023-04-03T01:08:27;2.70;1.40
316;DHT22;14128;48.686;9.738;2023-04-03T01:10:53;2.70;1.40
316;DHT22;14128;48.686;9.738;2023-04-03T01:13:23;2.70;1.40
316;DHT22;14128;48.686;9.738;2023-04-03T01:15:51;2.60;1.40
316;DHT22;14128;48.686;9.738;2023-04-03T01:18:19;2.60;1.40
316;DHT22;14128;48.686;9.738;2023-04-03T01:24:04;2.60;1.40
316;DHT22;14128;48.686;9.738;2023-04-03T01:26:34;2.70;1.40
316;DHT22;14128;48.686;9.738;2023-04-03T01:29:01;2.70;1.40
316;DHT22;14128;48.686;9.738;2023-04-03T01:34:03;2.70;1.40
316;DHT22;14128;48.686;9.738;2023-04-03T01:36:31;2.80;1.40
316;DHT22;14128;48.686;9.738;2023-04-03T01:38:59;2.80;1.40
316;DHT22;14128;48.686;9.738;2023-04-03T01:41:26;2.80;1.40
316;DHT22;14128;48.686;9.738;2023-04-03T01:43:53;2.80;1.40
316;DHT22;14128;48.686;9.738;2023-04-03T01:46:20;2.80;1.40
316;DHT22;14128;48.686;9.738;2023-04-03T01:48:47;2.80;1.40
316;DHT22;14128;48.686;9.738;2023-04-03T01:51:15;2.70;1.40
316;DHT22;14128;48.686;9.738;2023-04-03T01:53:42;2.70;1.40
316;DHT22;14128;48.686;9.738;2023-04-03T01:56:09;2.60;1.40
316;DHT22;14128;48.686;9.738;2023-04-03T01:58:36;2.60;1.40
316;DHT22;14128;48.686;9.738;2023-04-03T02:01:04;2.50;1.40
316;DHT22;14128;48.686;9.738;2023-04-03T02:03:31;2.50;1.40
316;DHT22;14128;48.686;9.738;2023-04-03T02:05:57;2.50;1.40
316;DHT22;14128;48.686;9.738;2023-04-03T02:08:26;2.50;1.40
316;DHT22;14128;48.686;9.738;2023-04-03T02:10:53;2.50;1.40
316;DHT22;14128;48.686;9.738;2023-04-03T02:13:20;2.50;1.40
316;DHT22;14128;48.686;9.738;2023-04-03T02:15:46;2.50;1.40
316;DHT22;14128;48.686;9.738;2023-04-03T02:18:13;2.50;1.40
316;DHT22;14128;48.686;9.738;2023-04-03T02:20:40;2.50;1.40
316;DHT22;14128;48.686;9.738;2023-04-03T02:23:07;2.60;1.40
316;DHT22;14128;48.686;9.738;2023-04-03T02:25:35;2.70;1.40
316;DHT22;14128;48.686;9.738;2023-04-03T02:28:02;2.70;1.40
316;DHT22;14128;48.686;9.738;2023-04-03T02:30:29;2.70;1.40
316;DHT22;14128;48.686;9.738;2023-04-03T02:32:55;2.80;1.40
316;DHT22;14128;48.686;9.738;2023-04-03T02:35:22;2.80;1.40
316;DHT22;14128;48.686;9.738;2023-04-03T02:37:49;2.80;1.40
316;DHT22;14128;48.686;9.738;2023-04-03T02:40:16;2.80;1.40
316;DHT22;14128;48.686;9.738;2023-04-03T02:42:44;2.80;1.40
316;DHT22;14128;48.686;9.738;2023-04-03T02:45:11;2.90;1.40
316;DHT22;14128;48.686;9.738;2023-04-03T02:47:38;2.90;1.40
316;DHT22;14128;48.686;9.738;2023-04-03T02:50:05;2.90;1.40
316;DHT22;14128;48.686;9.738;2023-04-03T02:52:32;3.00;1.40
316;DHT22;14128;48.686;9.738;2023-04-03T02:54:58;3.10;1.40
316;DHT22;14128;48.686;9.738;2023-04-03T02:57:25;3.10;1.40
316;DHT22;14128;48.686;9.738;2023-04-03T02:59:53;3.10;1.40
316;DHT22;14128;48.686;9.738;2023-04-03T03:02:20;3.10;1.40
316;DHT22;14128;48.686;9.738;2023-04-03T03:04:47;3.20;1.40
316;DHT22;14128;48.686;9.738;2023-04-03T03:07:14;3.20;1.40
316;DHT22;14128;48.686;9.738;2023-04-03T03:09:40;3.20;1.40
316;DHT22;14128;48.686;9.738;2023-04-03T03:12:07;3.20;1.40
316;DHT22;14128;48.686;9.738;2023-04-03T03:14:34;3.20;1.40
316;DHT22;14128;48.686;9.738;2023-04-03T03:17:02;3.20;1.40
316;DHT22;14128;48.686;9.738;2023-04-03T03:19:29;3.20;1.40
316;DHT22;14128;48.686;9.738;2023-04-03T03:21:55;3.10;1.40
316;DHT22;14128;48.686;9.738;2023-04-03T03:24:22;3.20;1.40
316;DHT22;14128;48.686;9.738;2023-04-03T03:26:49;3.10;1.40
316;DHT22;14128;48.686;9.738;2023-04-03T03:29:16;3.10;1.40
316;DHT22;14128;48.686;9.738;2023-04-03T03:31:43;3.10;1.40
316;DHT22;14128;48.686;9.738;2023-04-03T03:34:11;3.00;1.40
316;DHT22;14128;48.686;9.738;2023-04-03T03:36:38;3.00;1.40
316;DHT22;14128;48.686;9.738;2023-04-03T03:39:05;3.00;1.40
316;DHT22;14128;48.686;9.738;2023-04-03T03:41:32;3.00;1.40
316;DHT22;14128;48.686;9.738;2023-04-03T03:43:58;3.00;1.40
316;DHT22;14128;48.686;9.738;2023-04-03T03:46:25;3.00;1.40
316;DHT22;14128;48.686;9.738;2023-04-03T03:48:52;3.00;1.40
316;DHT22;14128;48.686;9.738;2023-04-03T03:51:20;3.00;1.40
316;DHT22;14128;48.686;9.738;2023-04-03T03:53:47;3.00;1.40
316;DHT22;14128;48.686;9.738;2023-04-03T03:56:14;2.90;1.40
316;DHT22;14128;48.686;9.738;2023-04-03T03:58:41;2.90;1.40
316;DHT22;14128;48.686;9.738;2023-04-03T04:01:07;2.90;1.40
316;DHT22;14128;48.686;9.738;2023-04-03T04:03:34;2.90;1.40
316;DHT22;14128;48.686;9.738;2023-04-03T04:06:01;2.90;1.40
316;DHT22;14128;48.686;9.738;2023-04-03T04:08:29;2.90;1.40
316;DHT22;14128;48.686;9.738;2023-04-03T04:10:56;2.90;1.40
316;DHT22;14128;48.686;9.738;2023-04-03T04:13:23;2.90;1.40
316;DHT22;14128;48.686;9.738;2023-04-03T04:15:50;2.90;1.40
316;DHT22;14128;48.686;9.738;2023-04-03T04:18:16;2.90;1.40
316;DHT22;14128;48.686;9.738;2023-04-03T04:20:45;2.90;1.40
316;DHT22;14128;48.686;9.738;2023-04-03T04:23:12;2.90;1.40
316;DHT22;14128;48.686;9.738;2023-04-03T04:25:40;2.90;1.40
316;DHT22;14128;48.686;9.738;2023-04-03T04:28:07;2.90;1.40
316;DHT22;14128;48.686;9.738;2023-04-03T04:30:34;2.90;1.40
316;DHT22;14128;48.686;9.738;2023-04-03T04:33:01;2.80;1.40
316;DHT22;14128;48.686;9.738;2023-04-03T04:35:27;2.80;1.40
316;DHT22;14128;48.686;9.738;2023-04-03T04:37:54;2.80;1.40
316;DHT22;14128;48.686;9.738;2023-04-03T04:40:22;2.80;1.40
316;DHT22;14128;48.686;9.738;2023-04-03T04:42:50;2.80;1.40
316;DHT22;14128;48.686;9.738;2023-04-03T04:45:17;2.80;1.40
316;DHT22;14128;48.686;9.738;2023-04-03T04:47:44;2.80;1.40
316;DHT22;14128;48.686;9.738;2023-04-03T04:50:11;2.70;1.40
316;DHT22;14128;48.686;9.738;2023-04-03T04:52:38;2.70;1.40
316;DHT22;14128;48.686;9.738;2023-04-03T04:55:06;2.70;1.40
316;DHT22;14128;48.686;9.738;2023-04-03T04:57:33;2.60;1.40
316;DHT22;14128;48.686;9.738;2023-04-03T05:00:02;2.30;1.40
316;DHT22;14128;48.686;9.738;2023-04-03T05:02:29;2.10;1.40
316;DHT22;14128;48.686;9.738;2023-04-03T05:04:56;2.10;1.40
316;DHT22;14128;48.686;9.738;2023-04-03T05:07:23;2.00;1.40
316;DHT22;14128;48.686;9.738;2023-04-03T05:09:49;2.00;1.40
316;DHT22;14128;48.686;9.738;2023-04-03T05:12:16;1.90;1.40
316;DHT22;14128;48.686;9.738;2023-04-03T05:14:43;1.70;1.40
316;DHT22;14128;48.686;9.738;2023-04-03T05:17:11;1.60;1.40
316;DHT22;14128;48.686;9.738;2023-04-03T05:19:38;1.70;1.40
316;DHT22;14128;48.686;9.738;2023-04-03T05:22:05;1.70;1.40
316;DHT22;14128;48.686;9.738;2023-04-03T05:24:32;1.80;1.40
316;DHT22;14128;48.686;9.738;2023-04-03T05:26:59;2.10;1.40
316;DHT22;14128;48.686;9.738;2023-04-03T05:29:25;2.30;1.40
316;DHT22;14128;48.686;9.738;2023-04-03T05:31:52;2.40;1.40
316;DHT22;14128;48.686;9.738;2023-04-03T05:34:21;2.50;1.40
316;DHT22;14128;48.686;9.738;2023-04-03T05:36:47;2.60;1.40
316;DHT22;14128;48.686;9.738;2023-04-03T05:39:14;2.70;1.40
316;DHT22;14128;48.686;9.738;2023-04-03T05:41:41;2.90;1.40
316;DHT22;14128;48.686;9.738;2023-04-03T05:44:08;3.00;1.40
316;DHT22;14128;48.686;9.738;2023-04-03T05:46:34;3.10;1.40
316;DHT22;14128;48.686;9.738;2023-04-03T05:49:01;3.10;1.40
316;DHT22;14128;48.686;9.738;2023-04-03T05:51:33;3.10;1.40
316;DHT22;14128;48.686;9.738;2023-04-03T05:54:06;3.10;1.40
316;DHT22;14128;48.686;9.738;2023-04-03T05:56:33;3.20;1.40
316;DHT22;14128;48.686;9.738;2023-04-03T05:59:00;3.40;1.40
316;DHT22;14128;48.686;9.738;2023-04-03T06:01:27;3.40;1.40
316;DHT22;14128;48.686;9.738;2023-04-03T06:03:54;3.50;1.40
316;DHT22;14128;48.686;9.738;2023-04-03T06:06:24;3.70;1.40
316;DHT22;14128;48.686;9.738;2023-04-03T06:08:52;3.80;1.40
316;DHT22;14128;48.686;9.738;2023-04-03T06:11:19;3.80;1.40
316;DHT22;14128;48.686;9.738;2023-04-03T06:13:47;3.90;1.40
316;DHT22;14128;48.686;9.738;2023-04-03T06:16:15;4.00;1.40
316;DHT22;14128;48.686;9.738;2023-04-03T06:18:43;4.10;1.40
316;DHT22;14128;48.686;9.738;2023-04-03T06:21:10;4.30;1.40
316;DHT22;14128;48.686;9.738;2023-04-03T06:23:37;4.30;1.40
316;DHT22;14128;48.686;9.738;2023-04-03T06:26:05;4.40;1.40
316;DHT22;14128;48.686;9.738;2023-04-03T06:28:32;4.40;1.40
316;DHT22;14128;48.686;9.738;2023-04-03T06:30:59;4.50;1.40
316;DHT22;14128;48.686;9.738;2023-04-03T06:33:26;4.60;1.40
316;DHT22;14128;48.686;9.738;2023-04-03T06:35:56;4.60;1.40
316;DHT22;14128;48.686;9.738;2023-04-03T06:38:24;4.70;1.40
316;DHT22;14128;48.686;9.738;2023-04-03T06:40:51;4.80;1.40
316;DHT22;14128;48.686;9.738;2023-04-03T06:43:19;4.90;1.40
316;DHT22;14128;48.686;9.738;2023-04-03T06:45:47;4.80;1.40
316;DHT22;14128;48.686;9.738;2023-04-03T06:48:13;4.80;1.40
316;DHT22;14128;48.686;9.738;2023-04-03T06:50:40;4.80;1.40
316;DHT22;14128;48.686;9.738;2023-04-03T06:53:07;4.90;1.40
316;DHT22;14128;48.686;9.738;2023-04-03T06:55:34;5.00;1.40
316;DHT22;14128;48.686;9.738;2023-04-03T06:58:02;5.20;1.40
316;DHT22;14128;48.686;9.738;2023-04-03T07:00:31;5.30;1.40
316;DHT22;14128;48.686;9.738;2023-04-03T07:02:58;5.40;1.40
316;DHT22;14128;48.686;9.738;2023-04-03T07:05:25;5.40;1.40
316;DHT22;14128;48.686;9.738;2023-04-03T07:07:52;5.50;1.40
316;DHT22;14128;48.686;9.738;2023-04-03T07:10:19;5.60;1.40
316;DHT22;14128;48.686;9.738;2023-04-03T07:12:46;5.40;1.40
316;DHT22;14128;48.686;9.738;2023-04-03T07:15:14;5.40;1.40
316;DHT22;14128;48.686;9.738;2023-04-03T07:17:42;5.40;1.40
316;DHT22;14128;48.686;9.738;2023-04-03T07:20:09;5.40;1.40
316;DHT22;14128;48.686;9.738;2023-04-03T07:22:37;5.30;1.40
316;DHT22;14128;48.686;9.738;2023-04-03T07:25:04;5.30;1.40
316;DHT22;14128;48.686;9.738;2023-04-03T07:27:33;5.40;1.40
316;DHT22;14128;48.686;9.738;2023-04-03T07:29:59;5.70;1.40
316;DHT22;14128;48.686;9.738;2023-04-03T07:32:26;5.90;1.40
316;DHT22;14128;48.686;9.738;2023-04-03T07:34:54;6.10;1.40
316;DHT22;14128;48.686;9.738;2023-04-03T07:37:21;6.10;1.40
316;DHT22;14128;48.686;9.738;2023-04-03T07:39:48;6.30;1.40
316;DHT22;14128;48.686;9.738;2023-04-03T07:42:15;6.50;1.40
316;DHT22;14128;48.686;9.738;2023-04-03T07:44:42;6.60;1.40
316;DHT22;14128;48.686;9.738;2023-04-03T07:47:09;6.40;1.40
316;DHT22;14128;48.686;9.738;2023-04-03T07:49:35;6.10;1.40
316;DHT22;14128;48.686;9.738;2023-04-03T07:52:06;6.00;1.40
316;DHT22;14128;48.686;9.738;2023-04-03T07:54:34;5.70;1.40
316;DHT22;14128;48.686;9.738;2023-04-03T07:57:01;5.80;1.40
316;DHT22;14128;48.686;9.738;2023-04-03T07:59:28;6.00;1.40
316;DHT22;14128;48.686;9.738;2023-04-03T08:01:55;6.10;1.40
316;DHT22;14128;48.686;9.738;2023-04-03T08:04:22;5.90;1.40
316;DHT22;14128;48.686;9.738;2023-04-03T08:06:49;6.00;1.40
316;DHT22;14128;48.686;9.738;2023-04-03T08:09:18;6.00;1.40
316;DHT22;14128;48.686;9.738;2023-04-03T08:11:45;6.10;1.40
316;DHT22;14128;48.686;9.738;2023-04-03T08:14:12;6.30;1.40
316;DHT22;14128;48.686;9.738;2023-04-03T08:16:44;6.50;1.40
316;DHT22;14128;48.686;9.738;2023-04-03T08:19:10;6.70;1.40
316;DHT22;14128;48.686;9.738;2023-04-03T08:21:39;6.80;1.40
316;DHT22;14128;48.686;9.738;2023-04-03T08:24:07;7.00;1.40
316;DHT22;14128;48.686;9.738;2023-04-03T08:30:23;7.50;1.40
316;DHT22;14128;48.686;9.738;2023-04-03T08:32:50;7.50;1.40
316;DHT22;14128;48.686;9.738;2023-04-03T08:35:17;7.80;1.40
316;DHT22;14128;48.686;9.738;2023-04-03T08:37:45;8.20;1.40
316;DHT22;14128;48.686;9.738;2023-04-03T08:40:15;8.20;1.40
316;DHT22;14128;48.686;9.738;2023-04-03T08:42:49;8.20;1.40
316;DHT22;14128;48.686;9.738;2023-04-03T08:45:25;8.10;1.40
316;DHT22;14128;48.686;9.738;2023-04-03T08:47:56;8.40;1.40
316;DHT22;14128;48.686;9.738;2023-04-03T08:50:30;8.70;1.40
316;DHT22;14128;48.686;9.738;2023-04-03T08:52:59;8.90;1.40
316;DHT22;14128;48.686;9.738;2023-04-03T08:55:28;9.20;1.40
316;DHT22;14128;48.686;9.738;2023-04-03T08:58:00;9.50;1.40
316;DHT22;14128;48.686;9.738;2023-04-03T09:00:32;9.90;1.40
316;DHT22;14128;48.686;9.738;2023-04-03T09:03:00;10.00;1.40
316;DHT22;14128;48.686;9.738;2023-04-03T09:05:34;9.60;1.40
316;DHT22;14128;48.686;9.738;2023-04-03T09:08:09;9.30;1.40
316;DHT22;14128;48.686;9.738;2023-04-03T09:10:40;9.20;1.40
316;DHT22;14128;48.686;9.738;2023-04-03T09:13:11;9.20;1.40
316;DHT22;14128;48.686;9.738;2023-04-03T09:15:41;9.00;1.40
316;DHT22;14128;48.686;9.738;2023-04-03T09:18:15;9.00;1.40
316;DHT22;14128;48.686;9.738;2023-04-03T09:20:46;9.00;1.40
316;DHT22;14128;48.686;9.738;2023-04-03T09:23:20;9.10;1.40
316;DHT22;14128;48.686;9.738;2023-04-03T09:25:50;9.20;1.40
316;DHT22;14128;48.686;9.738;2023-04-03T09:28:19;9.20;1.40
316;DHT22;14128;48.686;9.738;2023-04-03T09:30:48;9.10;1.40
316;DHT22;14128;48.686;9.738;2023-04-03T09:33:15;9.40;1.40
316;DHT22;14128;48.686;9.738;2023-04-03T09:35:43;9.80;1.40
316;DHT22;14128;48.686;9.738;2023-04-03T09:38:19;10.10;1.40
316;DHT22;14128;48.686;9.738;2023-04-03T09:40:49;10.50;1.40
316;DHT22;14128;48.686;9.738;2023-04-03T09:43:26;10.70;1.40
316;DHT22;14128;48.686;9.738;2023-04-03T09:45:55;10.80;1.40
316;DHT22;14128;48.686;9.738;2023-04-03T09:48:24;11.00;1.40
316;DHT22;14128;48.686;9.738;2023-04-03T09:51:00;10.60;1.40
316;DHT22;14128;48.686;9.738;2023-04-03T09:53:31;10.50;1.40
316;DHT22;14128;48.686;9.738;2023-04-03T09:55:58;10.40;1.40
316;DHT22;14128;48.686;9.738;2023-04-03T09:58:27;10.00;1.40
316;DHT22;14128;48.686;9.738;2023-04-03T10:00:58;9.70;1.40
316;DHT22;14128;48.686;9.738;2023-04-03T10:03:28;9.50;1.40
316;DHT22;14128;48.686;9.738;2023-04-03T10:05:55;9.10;1.40
316;DHT22;14128;48.686;9.738;2023-04-03T10:08:26;8.80;1.40
316;DHT22;14128;48.686;9.738;2023-04-03T10:11:12;8.90;1.40
316;DHT22;14128;48.686;9.738;2023-04-03T10:13:53;8.50;1.40
316;DHT22;14128;48.686;9.738;2023-04-03T10:16:25;8.50;1.40
316;DHT22;14128;48.686;9.738;2023-04-03T10:19:03;8.50;1.40
316;DHT22;14128;48.686;9.738;2023-04-03T10:21:39;8.50;1.40
316;DHT22;14128;48.686;9.738;2023-04-03T10:24:11;8.40;1.40
316;DHT22;14128;48.686;9.738;2023-04-03T10:26:45;8.30;1.40
316;DHT22;14128;48.686;9.738;2023-04-03T10:29:25;8.40;1.40
316;DHT22;14128;48.686;9.738;2023-04-03T10:32:01;8.50;1.40
316;DHT22;14128;48.686;9.738;2023-04-03T10:34:31;8.80;1.40
316;DHT22;14128;48.686;9.738;2023-04-03T10:37:04;9.20;1.40
316;DHT22;14128;48.686;9.738;2023-04-03T10:39:37;9.50;1.40
316;DHT22;14128;48.686;9.738;2023-04-03T10:42:11;9.70;1.40
316;DHT22;14128;48.686;9.738;2023-04-03T10:44:49;9.80;1.40
316;DHT22;14128;48.686;9.738;2023-04-03T10:47:21;9.50;1.40
316;DHT22;14128;48.686;9.738;2023-04-03T10:49:55;8.90;1.40
316;DHT22;14128;48.686;9.738;2023-04-03T10:52:34;8.60;1.40
316;DHT22;14128;48.686;9.738;2023-04-03T10:55:09;8.50;1.40
316;DHT22;14128;48.686;9.738;2023-04-03T10:57:40;8.10;1.40
316;DHT22;14128;48.686;9.738;2023-04-03T11:00:15;7.90;1.40
316;DHT22;14128;48.686;9.738;2023-04-03T11:02:49;7.90;1.40
316;DHT22;14128;48.686;9.738;2023-04-03T11:05:22;7.90;1.40
316;DHT22;14128;48.686;9.738;2023-04-03T11:07:53;8.20;1.40
316;DHT22;14128;48.686;9.738;2023-04-03T11:10:25;8.70;1.40
316;DHT22;14128;48.686;9.738;2023-04-03T11:13:02;9.40;1.40
316;DHT22;14128;48.686;9.738;2023-04-03T11:15:33;9.60;1.40
316;DHT22;14128;48.686;9.738;2023-04-03T11:18:04;9.50;1.40
316;DHT22;14128;48.686;9.738;2023-04-03T11:20:33;9.80;1.40
316;DHT22;14128;48.686;9.738;2023-04-03T11:23:06;10.10;1.40
316;DHT22;14128;48.686;9.738;2023-04-03T11:25:37;10.20;1.40
316;DHT22;14128;48.686;9.738;2023-04-03T11:28:09;10.40;1.40
316;DHT22;14128;48.686;9.738;2023-04-03T11:30:43;10.20;1.40
316;DHT22;14128;48.686;9.738;2023-04-03T11:33:30;10.20;1.40
316;DHT22;14128;48.686;9.738;2023-04-03T11:36:02;10.00;1.40
316;DHT22;14128;48.686;9.738;2023-04-03T11:38:32;9.80;1.40
316;DHT22;14128;48.686;9.738;2023-04-03T11:41:02;9.40;1.40
316;DHT22;14128;48.686;9.738;2023-04-03T11:43:31;9.30;1.40
316;DHT22;14128;48.686;9.738;2023-04-03T11:46:00;9.30;1.40
316;DHT22;14128;48.686;9.738;2023-04-03T11:48:51;9.60;1.40
316;DHT22;14128;48.686;9.738;2023-04-03T11:51:40;10.00;1.40
316;DHT22;14128;48.686;9.738;2023-04-03T11:54:45;10.10;1.40
316;DHT22;14128;48.686;9.738;2023-04-03T12:00:50;10.80;1.40
316;DHT22;14128;48.686;9.738;2023-04-03T12:10:17;11.20;1.40
316;DHT22;14128;48.686;9.738;2023-04-03T12:12:57;11.10;1.40
316;DHT22;14128;48.686;9.738;2023-04-03T12:15:54;10.80;1.40
316;DHT22;14128;48.686;9.738;2023-04-03T12:19:00;10.70;1.40
316;DHT22;14128;48.686;9.738;2023-04-03T12:22:06;10.70;1.40
316;DHT22;14128;48.686;9.738;2023-04-03T12:24:34;10.30;1.40
316;DHT22;14128;48.686;9.738;2023-04-03T12:27:09;10.50;1.40
316;DHT22;14128;48.686;9.738;2023-04-03T12:29:46;11.30;1.40
316;DHT22;14128;48.686;9.738;2023-04-03T12:32:24;11.40;1.40
316;DHT22;14128;48.686;9.738;2023-04-03T12:35:06;12.00;1.40
316;DHT22;14128;48.686;9.738;2023-04-03T12:38:12;11.80;1.40
316;DHT22;14128;48.686;9.738;2023-04-03T12:40:45;11.70;1.40
316;DHT22;14128;48.686;9.738;2023-04-03T12:43:42;11.70;1.40
316;DHT22;14128;48.686;9.738;2023-04-03T12:46:14;12.30;1.40
316;DHT22;14128;48.686;9.738;2023-04-03T12:48:48;12.60;1.40
316;DHT22;14128;48.686;9.738;2023-04-03T12:51:18;12.20;1.40
316;DHT22;14128;48.686;9.738;2023-04-03T12:53:46;12.00;1.40
316;DHT22;14128;48.686;9.738;2023-04-03T12:56:22;11.40;1.40
316;DHT22;14128;48.686;9.738;2023-04-03T12:58:51;11.80;1.40
316;DHT22;14128;48.686;9.738;2023-04-03T13:01:21;12.40;1.40
316;DHT22;14128;48.686;9.738;2023-04-03T13:03:52;12.30;1.40
316;DHT22;14128;48.686;9.738;2023-04-03T13:06:21;12.30;1.40
316;DHT22;14128;48.686;9.738;2023-04-03T13:08:51;12.10;1.40
316;DHT22;14128;48.686;9.738;2023-04-03T13:11:19;12.00;1.40
316;DHT22;14128;48.686;9.738;2023-04-03T13:13:56;11.90;1.40
316;DHT22;14128;48.686;9.738;2023-04-03T13:16:23;12.00;1.40
316;DHT22;14128;48.686;9.738;2023-04-03T13:18:51;11.90;1.40
316;DHT22;14128;48.686;9.738;2023-04-03T13:21:20;11.70;1.40
316;DHT22;14128;48.686;9.738;2023-04-03T13:23:51;11.90;1.40
316;DHT22;14128;48.686;9.738;2023-04-03T13:26:20;11.80;1.40
316;DHT22;14128;48.686;9.738;2023-04-03T13:28:48;11.70;1.40
316;DHT22;14128;48.686;9.738;2023-04-03T13:31:23;11.30;1.40
316;DHT22;14128;48.686;9.738;2023-04-03T13:33:57;11.00;1.40
316;DHT22;14128;48.686;9.738;2023-04-03T13:36:27;11.40;1.40
316;DHT22;14128;48.686;9.738;2023-04-03T13:39:01;12.40;1.40
316;DHT22;14128;48.686;9.738;2023-04-03T13:41:31;12.10;1.40
316;DHT22;14128;48.686;9.738;2023-04-03T13:44:26;11.70;1.40
316;DHT22;14128;48.686;9.738;2023-04-03T13:46:57;11.60;1.40
316;DHT22;14128;48.686;9.738;2023-04-03T13:49:32;11.20;1.40
316;DHT22;14128;48.686;9.738;2023-04-03T13:51:59;11.10;1.40
316;DHT22;14128;48.686;9.738;2023-04-03T13:54:32;10.80;1.40
316;DHT22;14128;48.686;9.738;2023-04-03T13:57:00;10.60;1.40
316;DHT22;14128;48.686;9.738;2023-04-03T13:59:30;10.60;1.40
316;DHT22;14128;48.686;9.738;2023-04-03T14:02:15;10.30;1.40
316;DHT22;14128;48.686;9.738;2023-04-03T14:04:49;10.30;1.40
316;DHT22;14128;48.686;9.738;2023-04-03T14:07:18;10.10;1.40
316;DHT22;14128;48.686;9.738;2023-04-03T14:09:47;10.40;1.40
316;DHT22;14128;48.686;9.738;2023-04-03T14:12:16;10.40;1.40
316;DHT22;14128;48.686;9.738;2023-04-03T14:14:44;10.60;1.40
316;DHT22;14128;48.686;9.738;2023-04-03T14:17:17;12.40;1.40
316;DHT22;14128;48.686;9.738;2023-04-03T14:19:45;11.90;1.40
316;DHT22;14128;48.686;9.738;2023-04-03T14:22:16;11.50;1.40
316;DHT22;14128;48.686;9.738;2023-04-03T14:24:44;11.10;1.40
316;DHT22;14128;48.686;9.738;2023-04-03T14:27:16;10.90;1.40
316;DHT22;14128;48.686;9.738;2023-04-03T14:29:44;11.10;1.40
316;DHT22;14128;48.686;9.738;2023-04-03T14:32:15;10.60;1.40
316;DHT22;14128;48.686;9.738;2023-04-03T14:34:43;10.70;1.40
316;DHT22;14128;48.686;9.738;2023-04-03T14:37:11;11.00;1.40
316;DHT22;14128;48.686;9.738;2023-04-03T14:39:40;13.40;1.40
316;DHT22;14128;48.686;9.738;2023-04-03T14:42:12;13.80;1.40
316;DHT22;14128;48.686;9.738;2023-04-03T14:44:39;14.40;1.40
316;DHT22;14128;48.686;9.738;2023-04-03T14:47:10;13.60;1.40
316;DHT22;14128;48.686;9.738;2023-04-03T14:49:38;12.70;1.40
316;DHT22;14128;48.686;9.738;2023-04-03T14:52:05;12.10;1.40
316;DHT22;14128;48.686;9.738;2023-04-03T14:54:32;11.70;1.40
316;DHT22;14128;48.686;9.738;2023-04-03T14:57:00;11.00;1.40
316;DHT22;14128;48.686;9.738;2023-04-03T14:59:28;11.10;1.40
316;DHT22;14128;48.686;9.738;2023-04-03T15:01:55;11.20;1.40
316;DHT22;14128;48.686;9.738;2023-04-03T15:04:22;11.30;1.40
316;DHT22;14128;48.686;9.738;2023-04-03T15:06:51;12.00;1.40
316;DHT22;14128;48.686;9.738;2023-04-03T15:09:20;12.50;1.40
316;DHT22;14128;48.686;9.738;2023-04-03T15:11:47;15.90;1.40
316;DHT22;14128;48.686;9.738;2023-04-03T15:14:14;16.60;1.40
316;DHT22;14128;48.686;9.738;2023-04-03T15:16:41;18.10;1.40
316;DHT22;14128;48.686;9.738;2023-04-03T15:19:08;18.70;1.40
316;DHT22;14128;48.686;9.738;2023-04-03T15:21:35;17.00;1.40
316;DHT22;14128;48.686;9.738;2023-04-03T15:24:04;14.60;1.40
316;DHT22;14128;48.686;9.738;2023-04-03T15:26:31;13.30;1.40
316;DHT22;14128;48.686;9.738;2023-04-03T15:28:58;11.90;1.40
316;DHT22;14128;48.686;9.738;2023-04-03T15:31:25;10.70;1.40
316;DHT22;14128;48.686;9.738;2023-04-03T15:33:52;10.20;1.40
316;DHT22;14128;48.686;9.738;2023-04-03T15:36:19;9.30;1.40
316;DHT22;14128;48.686;9.738;2023-04-03T15:38:46;8.90;1.40
316;DHT22;14128;48.686;9.738;2023-04-03T15:41:14;8.70;1.40
316;DHT22;14128;48.686;9.738;2023-04-03T15:43:41;8.90;1.40
316;DHT22;14128;48.686;9.738;2023-04-03T15:46:07;13.50;1.40
316;DHT22;14128;48.686;9.738;2023-04-03T15:48:35;16.50;1.40
316;DHT22;14128;48.686;9.738;2023-04-03T15:51:03;14.60;1.40
316;DHT22;14128;48.686;9.738;2023-04-03T15:53:29;13.00;1.40
316;DHT22;14128;48.686;9.738;2023-04-03T15:55:56;12.20;1.40
316;DHT22;14128;48.686;9.738;2023-04-03T15:58:24;11.60;1.40
316;DHT22;14128;48.686;9.738;2023-04-03T16:00:51;10.70;1.40
316;DHT22;14128;48.686;9.738;2023-04-03T16:03:20;10.50;1.40
316;DHT22;14128;48.686;9.738;2023-04-03T16:05:48;10.10;1.40
316;DHT22;14128;48.686;9.738;2023-04-03T16:08:15;9.70;1.40
316;DHT22;14128;48.686;9.738;2023-04-03T16:10:43;9.40;1.40
316;DHT22;14128;48.686;9.738;2023-04-03T16:13:11;9.00;1.40
316;DHT22;14128;48.686;9.738;2023-04-03T16:15:39;8.80;1.40
316;DHT22;14128;48.686;9.738;2023-04-03T16:18:09;8.50;1.40
316;DHT22;14128;48.686;9.738;2023-04-03T16:20:36;8.10;1.40
316;DHT22;14128;48.686;9.738;2023-04-03T16:23:04;7.90;1.40
316;DHT22;14128;48.686;9.738;2023-04-03T16:25:30;7.90;1.40
316;DHT22;14128;48.686;9.738;2023-04-03T16:27:57;7.90;1.40
316;DHT22;14128;48.686;9.738;2023-04-03T16:30:24;7.90;1.40
316;DHT22;14128;48.686;9.738;2023-04-03T16:32:53;7.90;1.40
316;DHT22;14128;48.686;9.738;2023-04-03T16:35:21;8.20;1.40
316;DHT22;14128;48.686;9.738;2023-04-03T16:37:48;9.10;1.40
316;DHT22;14128;48.686;9.738;2023-04-03T16:40:15;12.00;1.40
316;DHT22;14128;48.686;9.738;2023-04-03T16:42:42;13.90;1.40
316;DHT22;14128;48.686;9.738;2023-04-03T16:45:09;12.90;1.40
316;DHT22;14128;48.686;9.738;2023-04-03T16:47:36;11.80;1.40
316;DHT22;14128;48.686;9.738;2023-04-03T16:50:05;10.70;1.40
316;DHT22;14128;48.686;9.738;2023-04-03T16:52:32;9.80;1.40
316;DHT22;14128;48.686;9.738;2023-04-03T16:54:59;9.30;1.40
316;DHT22;14128;48.686;9.738;2023-04-03T16:57:26;8.80;1.40
316;DHT22;14128;48.686;9.738;2023-04-03T16:59:53;8.30;1.40
316;DHT22;14128;48.686;9.738;2023-04-03T17:02:21;7.90;1.40
316;DHT22;14128;48.686;9.738;2023-04-03T17:04:50;7.60;1.40